createdAt,value
2024-04-10T00:00:58.808Z,2.05
2024-04-10T00:01:58.531Z,2.04
2024-04-10T00:02:58.391Z,2.06
2024-04-10T00:03:58.401Z,2.04
2024-04-10T00:04:58.750Z,2.02
2024-04-10T00:05:58.449Z,2.02
2024-04-10T00:06:58.434Z,2.01
2024-04-10T00:07:58.404Z,2.01
2024-04-10T00:08:58.383Z,1.98
2024-04-10T00:09:58.391Z,1.99
2024-04-10T00:10:58.490Z,2.02
2024-04-10T00:11:58.695Z,1.93
2024-04-10T00:12:58.465Z,1.94
2024-04-10T00:13:58.503Z,1.97
2024-04-10T00:14:58.992Z,1.90
2024-04-10T00:15:58.470Z,1.96
2024-04-10T00:16:58.489Z,1.98
2024-04-10T00:17:58.676Z,1.95
2024-04-10T00:18:58.864Z,1.94
2024-04-10T00:19:58.623Z,1.94
2024-04-10T00:20:58.650Z,1.95
2024-04-10T00:21:58.577Z,1.92
2024-04-10T00:22:58.674Z,1.88
2024-04-10T00:23:58.802Z,1.93
2024-04-10T00:24:58.652Z,1.98
2024-04-10T00:25:58.644Z,1.94
2024-04-10T00:26:58.670Z,1.96
2024-04-10T00:27:58.651Z,1.95
2024-04-10T00:28:58.862Z,1.96
2024-04-10T00:29:58.736Z,1.92
2024-04-10T00:30:58.771Z,1.90
2024-04-10T00:31:58.780Z,1.92
2024-04-10T00:32:58.991Z,1.94
2024-04-10T00:33:58.918Z,1.93
2024-04-10T00:34:58.874Z,1.92
2024-04-10T00:35:58.814Z,1.96
2024-04-10T00:36:58.828Z,1.93
2024-04-10T00:37:58.982Z,1.98
2024-04-10T00:38:58.869Z,1.97
2024-04-10T00:39:58.928Z,1.96
2024-04-10T00:40:58.995Z,1.97
2024-04-10T00:41:58.971Z,1.94
2024-04-10T00:42:58.913Z,1.91
2024-04-10T00:43:58.975Z,1.95
2024-04-10T00:44:59.010Z,1.92
2024-04-10T00:45:58.942Z,1.92
2024-04-10T00:46:59.068Z,1.93
2024-04-10T00:47:59.462Z,1.93
2024-04-10T00:48:59.140Z,1.92
2024-04-10T00:49:59.038Z,1.90
2024-04-10T00:50:59.032Z,1.92
2024-04-10T00:51:59.040Z,1.93
2024-04-10T00:52:59.109Z,1.88
2024-04-10T00:53:59.102Z,1.87
2024-04-10T00:54:59.129Z,1.90
2024-04-10T00:55:59.155Z,1.86
2024-04-10T00:56:59.188Z,1.88
2024-04-10T00:57:59.124Z,1.94
2024-04-10T00:58:59.170Z,1.87
2024-04-10T00:59:59.262Z,1.90
2024-04-10T01:00:59.347Z,1.91
2024-04-10T01:01:59.188Z,1.92
2024-04-10T01:02:59.998Z,1.89
2024-04-10T01:03:59.428Z,1.91
2024-04-10T01:04:59.285Z,1.91
2024-04-10T01:05:59.240Z,1.88
2024-04-10T01:06:59.239Z,1.91
2024-04-10T01:07:59.300Z,1.89
2024-04-10T01:08:59.240Z,1.90
2024-04-10T01:09:59.331Z,1.87
2024-04-10T01:10:59.353Z,1.83
2024-04-10T01:11:59.369Z,1.85
2024-04-10T01:12:59.338Z,1.87
2024-04-10T01:13:59.336Z,1.86
2024-04-10T01:14:59.350Z,1.85
2024-04-10T01:15:59.406Z,1.84
2024-04-10T01:16:59.503Z,1.88
2024-04-10T01:17:59.645Z,1.85
2024-04-10T01:18:59.590Z,1.85
2024-04-10T01:19:59.759Z,1.85
2024-04-10T01:20:59.436Z,1.89
2024-04-10T01:21:59.507Z,1.83
2024-04-10T01:22:59.498Z,1.83
2024-04-10T01:23:59.472Z,1.86
2024-04-10T01:24:59.487Z,1.87
2024-04-10T01:25:59.600Z,1.84
2024-04-10T01:26:59.758Z,1.80
2024-04-10T01:27:59.531Z,1.86
2024-04-10T01:28:59.603Z,1.82
2024-04-10T01:29:59.587Z,1.84
2024-04-10T01:30:59.598Z,1.87
2024-04-10T01:31:59.672Z,1.84
2024-04-10T01:32:59.824Z,1.83
2024-04-10T01:33:59.751Z,1.85
2024-04-10T01:34:59.739Z,1.83
2024-04-10T01:35:59.689Z,1.82
2024-04-10T01:36:59.784Z,1.81
2024-04-10T01:37:59.880Z,1.84
2024-04-10T01:38:59.762Z,1.82
2024-04-10T01:39:59.784Z,1.78
2024-04-10T01:40:59.902Z,1.85
2024-04-10T01:41:59.880Z,1.81
2024-04-10T01:42:59.901Z,1.85
2024-04-10T01:43:59.893Z,1.83
2024-04-10T01:44:59.852Z,1.85
2024-04-10T01:46:00.532Z,1.86
2024-04-10T01:47:00.006Z,1.82
2024-04-10T01:48:00.199Z,1.81
2024-04-10T01:49:00.151Z,1.82
2024-04-10T01:49:59.986Z,1.87
2024-04-10T01:50:59.950Z,1.83
2024-04-10T01:51:59.965Z,1.86
2024-04-10T01:53:00.064Z,1.86
2024-04-10T01:54:00.022Z,1.85
2024-04-10T01:55:00.053Z,1.83
2024-04-10T01:56:00.119Z,1.80
2024-04-10T01:57:00.066Z,1.84
2024-04-10T01:58:00.126Z,1.80
2024-04-10T01:59:00.124Z,1.84
2024-04-10T02:00:00.278Z,1.79
2024-04-10T02:01:00.340Z,1.82
2024-04-10T02:02:00.238Z,1.81
2024-04-10T02:03:00.256Z,1.80
2024-04-10T02:04:00.356Z,1.83
2024-04-10T02:05:00.275Z,1.85
2024-04-10T02:06:00.377Z,1.84
2024-04-10T02:07:00.264Z,1.83
2024-04-10T02:08:00.509Z,1.78
2024-04-10T02:09:00.281Z,1.79
2024-04-10T02:10:00.333Z,1.81
2024-04-10T02:11:00.440Z,1.83
2024-04-10T02:12:00.443Z,1.78
2024-04-10T02:13:00.412Z,1.80
2024-04-10T02:14:00.479Z,1.77
2024-04-10T02:15:00.527Z,1.82
2024-04-10T02:16:00.502Z,1.80
2024-04-10T02:17:00.677Z,1.81
2024-04-10T02:18:00.702Z,1.81
2024-04-10T02:19:00.506Z,1.84
2024-04-10T02:20:00.712Z,1.79
2024-04-10T02:21:02.618Z,1.77
2024-04-10T02:22:00.518Z,1.77
2024-04-10T02:23:00.577Z,1.77
2024-04-10T02:24:00.589Z,1.77
2024-04-10T02:25:00.544Z,1.79
2024-04-10T02:26:00.621Z,1.79
2024-04-10T02:27:00.565Z,1.78
2024-04-10T02:28:00.782Z,1.80
2024-04-10T02:29:00.576Z,1.77
2024-04-10T02:30:00.588Z,1.78
2024-04-10T02:31:00.540Z,1.78
2024-04-10T02:32:00.653Z,1.77
2024-04-10T02:33:00.810Z,1.80
2024-04-10T02:34:00.786Z,1.78
2024-04-10T02:35:00.714Z,1.79
2024-04-10T02:36:00.578Z,1.77
2024-04-10T02:37:00.580Z,1.78
2024-04-10T02:38:00.632Z,1.76
2024-04-10T02:39:00.582Z,1.76
2024-04-10T02:40:00.711Z,1.77
2024-04-10T02:41:01.356Z,1.77
2024-04-10T02:42:00.691Z,1.79
2024-04-10T02:43:00.556Z,1.79
2024-04-10T02:44:00.648Z,1.80
2024-04-10T02:45:00.608Z,1.76
2024-04-10T02:46:00.689Z,1.78
2024-04-10T02:47:00.704Z,1.77
2024-04-10T02:48:00.610Z,1.80
2024-04-10T02:49:00.560Z,1.78
2024-04-10T02:50:00.593Z,1.77
2024-04-10T02:51:00.582Z,1.84
2024-04-10T02:52:00.677Z,1.80
2024-04-10T02:53:00.570Z,1.77
2024-04-10T02:54:00.839Z,1.79
2024-04-10T02:55:00.602Z,1.81
2024-04-10T02:56:00.586Z,1.81
2024-04-10T02:57:00.590Z,1.75
2024-04-10T02:58:00.678Z,1.82
2024-04-10T02:59:00.936Z,1.81
2024-04-10T03:00:00.592Z,1.81
2024-04-10T03:01:00.672Z,1.83
2024-04-10T03:02:00.689Z,1.85
2024-04-10T03:03:00.605Z,1.83
2024-04-10T03:04:00.706Z,1.84
2024-04-10T03:05:00.745Z,1.81
2024-04-10T03:06:00.563Z,1.81
2024-04-10T03:07:00.568Z,1.84
2024-04-10T03:08:00.695Z,1.84
2024-04-10T03:09:00.600Z,1.83
2024-04-10T03:10:00.625Z,1.83
2024-04-10T03:11:00.870Z,1.80
2024-04-10T03:12:01.030Z,1.82
2024-04-10T03:13:00.626Z,1.83
2024-04-10T03:14:00.719Z,1.81
2024-04-10T03:15:00.642Z,1.80
2024-04-10T03:16:00.583Z,1.85
2024-04-10T03:17:00.866Z,1.78
2024-04-10T03:18:00.787Z,1.80
2024-04-10T03:19:00.703Z,1.76
2024-04-10T03:20:00.805Z,1.82
2024-04-10T03:21:00.731Z,1.81
2024-04-10T03:22:00.785Z,1.78
2024-04-10T03:23:00.815Z,1.83
2024-04-10T03:24:00.809Z,1.84
2024-04-10T03:25:00.849Z,1.79
2024-04-10T03:26:00.906Z,1.80
2024-04-10T03:27:00.916Z,1.82
2024-04-10T03:28:01.069Z,1.82
2024-04-10T03:29:01.047Z,1.82
2024-04-10T03:30:01.018Z,1.80
2024-04-10T03:31:01.013Z,1.85
2024-04-10T03:32:01.099Z,1.82
2024-04-10T03:33:01.247Z,1.84
2024-04-10T03:34:01.254Z,1.83
2024-04-10T03:35:01.227Z,1.83
2024-04-10T03:36:01.194Z,1.82
2024-04-10T03:37:01.257Z,1.85
2024-04-10T03:38:01.400Z,1.80
2024-04-10T03:39:01.375Z,1.83
2024-04-10T03:40:01.412Z,1.88
2024-04-10T03:41:01.494Z,1.82
2024-04-10T03:42:01.384Z,1.80
2024-04-10T03:43:01.538Z,1.82
2024-04-10T03:44:01.552Z,1.85
2024-04-10T03:45:01.570Z,1.80
2024-04-10T03:46:01.570Z,1.79
2024-04-10T03:47:02.043Z,1.82
2024-04-10T03:48:01.762Z,1.82
2024-04-10T03:49:01.918Z,1.82
2024-04-10T03:50:01.868Z,1.81
2024-04-10T03:51:01.748Z,1.87
2024-04-10T03:52:01.752Z,1.83
2024-04-10T03:53:01.844Z,1.82
2024-04-10T03:54:01.918Z,1.85
2024-04-10T03:55:02.003Z,1.84
2024-04-10T03:56:01.946Z,1.85
2024-04-10T03:57:01.914Z,1.81
2024-04-10T03:58:01.969Z,1.86
2024-04-10T03:59:02.051Z,1.87
2024-04-10T04:00:02.032Z,1.85
2024-04-10T04:01:02.129Z,1.83
2024-04-10T04:02:02.248Z,1.83
2024-04-10T04:03:02.379Z,1.74
2024-04-10T04:04:02.372Z,1.72
2024-04-10T04:05:02.262Z,1.69
2024-04-10T04:06:02.303Z,1.65
2024-04-10T04:07:02.322Z,1.61
2024-04-10T04:08:02.356Z,1.53
2024-04-10T04:09:02.380Z,1.47
2024-04-10T04:10:02.473Z,1.37
2024-04-10T04:11:02.598Z,1.31
2024-04-10T04:12:02.644Z,1.26
2024-04-10T04:13:02.559Z,1.20
2024-04-10T04:14:02.715Z,1.12
2024-04-10T04:15:02.794Z,1.09
2024-04-10T04:16:02.775Z,1.02
2024-04-10T04:17:02.847Z,1.00
2024-04-10T04:18:02.922Z,0.93
2024-04-10T04:19:02.950Z,0.90
2024-04-10T04:20:03.116Z,0.87
2024-04-10T04:21:10.399Z,0.50
2024-04-10T04:22:10.577Z,0.50
2024-04-10T04:23:10.433Z,0.50
2024-04-10T04:24:10.485Z,0.50
2024-04-10T04:25:10.380Z,0.50
2024-04-10T04:26:10.443Z,0.51
2024-04-10T04:27:10.412Z,0.50
2024-04-10T04:28:10.456Z,0.50
2024-04-10T04:29:10.433Z,0.50
2024-04-10T04:30:10.407Z,0.50
2024-04-10T04:31:17.785Z,0.50
2024-04-10T04:32:17.754Z,0.50
2024-04-10T04:33:17.802Z,0.50
2024-04-10T04:34:17.814Z,0.50
2024-04-10T04:35:17.723Z,0.50
2024-04-10T04:36:17.632Z,0.51
2024-04-10T04:37:17.630Z,0.50
2024-04-10T04:38:17.769Z,0.51
2024-04-10T04:39:17.631Z,0.50
2024-04-10T04:40:17.672Z,0.51
2024-04-10T04:41:17.700Z,0.52
2024-04-10T04:42:17.664Z,0.52
2024-04-10T04:43:17.695Z,0.52
2024-04-10T04:44:17.760Z,0.53
2024-04-10T04:45:17.698Z,0.52
2024-04-10T04:46:17.794Z,0.53
2024-04-10T04:47:17.811Z,0.54
2024-04-10T04:48:18.124Z,0.55
2024-04-10T04:49:17.702Z,0.55
2024-04-10T04:50:17.731Z,0.55
2024-04-10T04:51:17.721Z,0.58
2024-04-10T04:52:17.725Z,0.57
2024-04-10T04:53:17.865Z,0.58
2024-04-10T04:54:17.858Z,0.59
2024-04-10T04:55:17.929Z,0.61
2024-04-10T04:56:17.975Z,0.63
2024-04-10T04:57:17.993Z,0.61
2024-04-10T04:58:18.084Z,0.64
2024-04-10T04:59:18.205Z,0.63
2024-04-10T05:00:18.267Z,0.64
2024-04-10T05:01:18.240Z,0.65
2024-04-10T05:02:18.486Z,0.67
2024-04-10T05:03:18.446Z,0.67
2024-04-10T05:04:18.575Z,0.69
2024-04-10T05:05:18.544Z,0.69
2024-04-10T05:06:21.004Z,0.71
2024-04-10T05:07:18.505Z,0.72
2024-04-10T05:08:18.611Z,0.73
2024-04-10T05:09:18.515Z,0.74
2024-04-10T05:10:18.697Z,0.74
2024-04-10T05:11:18.645Z,0.75
2024-04-10T05:12:18.668Z,0.76
2024-04-10T05:13:18.548Z,0.79
2024-04-10T05:14:18.843Z,0.81
2024-04-10T05:15:18.572Z,0.81
2024-04-10T05:16:18.562Z,0.82
2024-04-10T05:17:18.622Z,0.82
2024-04-10T05:18:18.656Z,0.81
2024-04-10T05:19:18.535Z,0.85
2024-04-10T05:20:19.250Z,0.85
2024-04-10T05:21:18.710Z,0.85
2024-04-10T05:22:18.514Z,0.87
2024-04-10T05:23:18.679Z,0.86
2024-04-10T05:24:18.619Z,0.91
2024-04-10T05:25:18.574Z,0.90
2024-04-10T05:26:18.648Z,0.93
2024-04-10T05:27:18.583Z,0.91
2024-04-10T05:28:18.559Z,0.93
2024-04-10T05:29:18.624Z,0.94
2024-04-10T05:30:18.603Z,0.91
2024-04-10T05:31:18.603Z,0.95
2024-04-10T05:32:18.663Z,0.96
2024-04-10T05:33:18.689Z,0.98
2024-04-10T05:34:18.849Z,0.97
2024-04-10T05:35:18.627Z,0.99
2024-04-10T05:36:18.540Z,0.98
2024-04-10T05:37:18.655Z,0.96
2024-04-10T05:38:18.594Z,0.92
2024-04-10T05:39:18.592Z,0.88
2024-04-10T05:40:18.979Z,0.85
2024-04-10T05:41:18.751Z,0.81
2024-04-10T05:42:18.722Z,0.79
2024-04-10T05:43:18.591Z,0.79
2024-04-10T05:44:19.088Z,0.73
2024-04-10T05:45:18.741Z,0.69
2024-04-10T05:46:18.797Z,0.70
2024-04-10T05:47:19.936Z,0.67
2024-04-10T05:48:18.739Z,0.65
2024-04-10T05:49:18.629Z,0.73
2024-04-10T05:50:19.170Z,0.71
2024-04-10T05:51:18.659Z,0.72
2024-04-10T05:52:18.611Z,0.71
2024-04-10T05:53:18.707Z,0.72
2024-04-10T05:54:18.910Z,0.76
2024-04-10T05:55:18.782Z,0.74
2024-04-10T05:56:18.691Z,0.79
2024-04-10T05:57:18.588Z,0.78
2024-04-10T05:58:18.758Z,0.81
2024-04-10T05:59:18.993Z,0.76
2024-04-10T06:00:18.769Z,0.82
2024-04-10T06:01:18.779Z,0.75
2024-04-10T06:02:19.060Z,0.76
2024-04-10T06:03:19.044Z,0.80
2024-04-10T06:04:18.957Z,0.81
2024-04-10T06:05:19.174Z,0.81
2024-04-10T06:06:19.025Z,0.82
2024-04-10T06:07:19.282Z,0.85
2024-04-10T06:08:19.226Z,0.88
2024-04-10T06:09:19.238Z,0.87
2024-04-10T06:10:19.288Z,0.88
2024-04-10T06:11:19.615Z,0.91
2024-04-10T06:12:19.441Z,0.90
2024-04-10T06:13:19.440Z,0.90
2024-04-10T06:14:19.699Z,0.91
2024-04-10T06:15:19.557Z,0.86
2024-04-10T06:16:20.561Z,0.87
2024-04-10T06:17:20.414Z,0.81
2024-04-10T06:18:19.695Z,0.77
2024-04-10T06:19:19.715Z,0.75
2024-04-10T06:20:20.241Z,0.73
2024-04-10T06:21:19.797Z,0.73
2024-04-10T06:22:23.018Z,0.72
2024-04-10T06:23:19.718Z,0.72
2024-04-10T06:24:19.804Z,0.72
2024-04-10T06:25:19.733Z,0.70
2024-04-10T06:26:19.790Z,0.71
2024-04-10T06:27:19.865Z,0.72
2024-04-10T06:28:19.740Z,0.72
2024-04-10T06:29:19.760Z,0.75
2024-04-10T06:30:19.843Z,0.78
2024-04-10T06:31:19.750Z,0.79
2024-04-10T06:32:20.063Z,0.77
2024-04-10T06:33:20.034Z,0.79
2024-04-10T06:34:19.875Z,0.81
2024-04-10T06:35:19.848Z,0.80
2024-04-10T06:36:19.707Z,0.83
2024-04-10T06:37:19.716Z,0.86
2024-04-10T06:38:19.952Z,0.86
2024-04-10T06:39:19.802Z,0.88
2024-04-10T06:40:21.111Z,0.88
2024-04-10T06:41:19.923Z,0.94
2024-04-10T06:42:20.162Z,0.92
2024-04-10T06:43:20.370Z,0.94
2024-04-10T06:44:19.850Z,0.97
2024-04-10T06:45:19.848Z,0.99
2024-04-10T06:46:19.808Z,1.04
2024-04-10T06:47:20.243Z,1.06
2024-04-10T06:48:20.177Z,1.09
2024-04-10T06:49:20.501Z,1.11
2024-04-10T06:50:20.203Z,1.13
2024-04-10T06:51:20.365Z,1.15
2024-04-10T06:52:20.377Z,1.17
2024-04-10T06:53:20.328Z,1.18
2024-04-10T06:54:23.420Z,1.18
2024-04-10T06:55:20.518Z,1.21
2024-04-10T06:56:20.495Z,1.21
2024-04-10T06:57:20.839Z,1.21
2024-04-10T06:58:20.360Z,1.23
2024-04-10T06:59:20.586Z,1.28
2024-04-10T07:00:20.573Z,1.26
2024-04-10T07:01:20.700Z,1.25
2024-04-10T07:02:20.823Z,1.26
2024-04-10T07:03:20.908Z,1.28
2024-04-10T07:04:20.503Z,1.26
2024-04-10T07:05:20.504Z,1.28
2024-04-10T07:06:20.608Z,1.31
2024-04-10T07:07:20.728Z,1.35
2024-04-10T07:08:21.026Z,1.30
2024-04-10T07:09:20.431Z,1.35
2024-04-10T07:10:20.403Z,1.33
2024-04-10T07:11:21.333Z,1.32
2024-04-10T07:12:20.670Z,1.34
2024-04-10T07:13:20.384Z,1.30
2024-04-10T07:14:20.480Z,1.33
2024-04-10T07:15:20.855Z,1.30
2024-04-10T07:16:20.529Z,1.28
2024-04-10T07:17:20.600Z,1.29
2024-04-10T07:18:20.427Z,1.27
2024-04-10T07:19:20.587Z,1.32
2024-04-10T07:20:20.998Z,1.37
2024-04-10T07:21:20.532Z,1.35
2024-04-10T07:22:20.508Z,1.37
2024-04-10T07:23:20.449Z,1.42
2024-04-10T07:24:20.511Z,1.47
2024-04-10T07:25:21.569Z,1.48
2024-04-10T07:26:20.516Z,1.44
2024-04-10T07:27:20.972Z,1.49
2024-04-10T07:28:20.374Z,1.51
2024-04-10T07:29:20.612Z,1.52
2024-04-10T07:30:20.814Z,1.55
2024-04-10T07:31:20.490Z,1.63
2024-04-10T07:32:20.680Z,1.62
2024-04-10T07:33:20.541Z,1.64
2024-04-10T07:34:20.826Z,1.64
2024-04-10T07:35:24.844Z,1.65
2024-04-10T07:36:20.452Z,1.60
2024-04-10T07:37:20.637Z,1.55
2024-04-10T07:38:22.297Z,1.40
2024-04-10T07:39:20.854Z,1.28
2024-04-10T07:40:20.735Z,1.15
2024-04-10T07:41:20.425Z,1.03
2024-04-10T07:42:20.657Z,0.96
2024-04-10T07:43:20.905Z,0.86
2024-04-10T07:44:20.480Z,0.84
2024-04-10T07:45:20.415Z,0.86
2024-04-10T07:46:20.507Z,0.81
2024-04-10T07:47:21.608Z,0.77
2024-04-10T07:48:21.398Z,0.76
2024-04-10T07:49:23.542Z,0.70
2024-04-10T07:50:20.890Z,0.72
2024-04-10T07:51:20.406Z,0.69
2024-04-10T07:52:21.894Z,0.69
2024-04-10T07:53:20.428Z,0.66
2024-04-10T07:54:20.450Z,0.68
2024-04-10T07:55:21.387Z,0.65
2024-04-10T07:56:20.489Z,0.63
2024-04-10T07:57:20.955Z,0.64
2024-04-10T07:58:20.529Z,0.61
2024-04-10T07:59:20.921Z,0.60
2024-04-10T08:00:20.860Z,0.61
2024-04-10T08:01:20.732Z,0.60
2024-04-10T08:02:20.950Z,0.59
2024-04-10T08:03:20.479Z,0.55
2024-04-10T08:04:20.667Z,0.53
2024-04-10T08:05:20.545Z,0.58
2024-04-10T08:06:21.942Z,0.53
2024-04-10T08:07:21.001Z,0.55
2024-04-10T08:08:21.592Z,0.56
2024-04-10T08:09:21.084Z,0.59
2024-04-10T08:10:21.450Z,0.57
2024-04-10T08:11:21.386Z,0.56
2024-04-10T08:12:21.308Z,0.53
2024-04-10T08:13:20.579Z,0.58
2024-04-10T08:14:20.776Z,0.56
2024-04-10T08:15:20.778Z,0.57
2024-04-10T08:16:23.040Z,0.57
2024-04-10T08:17:20.897Z,0.54
2024-04-10T08:18:21.442Z,0.55
2024-04-10T08:19:20.933Z,0.54
2024-04-10T08:20:23.005Z,0.54
2024-04-10T08:21:20.987Z,0.56
2024-04-10T08:22:21.935Z,0.54
2024-04-10T08:23:21.938Z,0.52
2024-04-10T08:24:21.250Z,0.52
2024-04-10T08:25:21.375Z,0.52
2024-04-10T08:26:21.776Z,0.51
2024-04-10T08:27:21.454Z,0.50
2024-04-10T08:28:21.396Z,0.50
2024-04-10T08:29:22.856Z,0.50
2024-04-10T08:30:21.411Z,0.51
2024-04-10T08:31:21.472Z,0.50
2024-04-10T08:32:22.975Z,0.51
2024-04-10T08:33:21.640Z,0.51
2024-04-10T08:34:21.646Z,0.50
2024-04-10T08:35:22.131Z,0.50
2024-04-10T08:36:21.721Z,0.50
2024-04-10T08:37:22.071Z,0.50
2024-04-10T08:38:21.760Z,0.50
2024-04-10T08:39:21.929Z,0.50
2024-04-10T08:40:23.033Z,0.51
2024-04-10T08:41:21.955Z,0.50
2024-04-10T08:42:24.056Z,0.51
2024-04-10T08:43:22.650Z,0.52
2024-04-10T08:44:22.362Z,0.51
2024-04-10T08:45:22.112Z,0.52
2024-04-10T08:46:22.320Z,0.52
2024-04-10T08:47:22.596Z,0.54
2024-04-10T08:48:22.532Z,0.53
2024-04-10T08:49:22.199Z,0.55
2024-04-10T08:50:26.427Z,0.56
2024-04-10T08:51:23.270Z,0.56
2024-04-10T08:52:22.767Z,0.57
2024-04-10T08:53:22.772Z,0.58
2024-04-10T08:54:22.313Z,0.63
2024-04-10T08:55:22.687Z,0.71
2024-04-10T08:56:22.351Z,0.74
2024-04-10T08:57:23.366Z,0.77
2024-04-10T08:58:22.230Z,0.79
2024-04-10T08:59:22.230Z,0.81
2024-04-10T09:00:22.878Z,0.84
2024-04-10T09:01:22.552Z,0.89
2024-04-10T09:02:26.881Z,0.92
2024-04-10T09:03:24.606Z,0.93
2024-04-10T09:04:23.721Z,0.94
2024-04-10T09:05:23.995Z,0.97
2024-04-10T09:06:24.673Z,1.00
2024-04-10T09:07:23.252Z,1.04
2024-04-10T09:08:22.370Z,1.13
2024-04-10T09:09:22.324Z,1.13
2024-04-10T09:10:22.518Z,1.17
2024-04-10T09:11:22.788Z,1.17
2024-04-10T09:12:22.465Z,1.20
2024-04-10T09:13:24.472Z,1.21
2024-04-10T09:14:26.004Z,1.21
2024-04-10T09:15:26.713Z,1.21
2024-04-10T09:16:24.599Z,1.21
2024-04-10T09:17:22.691Z,1.21
2024-04-10T09:18:26.204Z,1.23
2024-04-10T09:19:22.932Z,1.27
2024-04-10T09:20:22.687Z,1.36
2024-04-10T09:21:22.778Z,1.45
2024-04-10T09:22:22.757Z,1.47
2024-04-10T09:23:22.949Z,1.52
2024-04-10T09:24:26.802Z,1.59
2024-04-10T09:25:22.961Z,1.60
2024-04-10T09:26:22.750Z,1.60
2024-04-10T09:27:22.700Z,1.63
2024-04-10T09:28:22.854Z,1.65
2024-04-10T09:29:22.908Z,1.75
2024-04-10T09:30:23.995Z,1.77
2024-04-10T09:31:22.807Z,1.85
2024-04-10T09:32:23.149Z,1.85
2024-04-10T09:33:23.007Z,1.88
2024-04-10T09:34:23.262Z,1.75
2024-04-10T09:35:23.009Z,1.79
2024-04-10T09:36:22.952Z,1.63
2024-04-10T09:37:23.025Z,1.56
2024-04-10T09:38:23.251Z,1.59
2024-04-10T09:39:23.018Z,1.60
2024-04-10T09:40:23.790Z,1.58
2024-04-10T09:41:23.223Z,1.58
2024-04-10T09:42:23.413Z,1.59
2024-04-10T09:43:23.139Z,1.68
2024-04-10T09:44:23.451Z,1.68
2024-04-10T09:45:23.463Z,1.83
2024-04-10T09:46:23.311Z,1.82
2024-04-10T09:47:23.456Z,1.87
2024-04-10T09:48:24.218Z,1.92
2024-04-10T09:49:23.550Z,1.98
2024-04-10T09:50:23.594Z,2.05
2024-04-10T09:51:23.620Z,2.09
2024-04-10T09:52:23.828Z,2.11
2024-04-10T09:53:24.080Z,2.16
2024-04-10T09:54:23.714Z,2.22
2024-04-10T09:55:23.804Z,2.27
2024-04-10T09:56:23.838Z,2.31
2024-04-10T09:57:24.336Z,2.31
2024-04-10T09:58:24.550Z,2.40
2024-04-10T09:59:24.560Z,2.45
2024-04-10T10:00:23.989Z,2.51
2024-04-10T10:01:24.349Z,2.52
2024-04-10T10:02:24.259Z,2.43
2024-04-10T10:03:24.187Z,2.33
2024-04-10T10:04:26.552Z,2.21
2024-04-10T10:05:29.947Z,2.06
2024-04-10T10:06:26.217Z,2.06
2024-04-10T10:07:24.312Z,2.02
2024-04-10T10:08:24.261Z,1.97
2024-04-10T10:09:24.511Z,1.98
2024-04-10T10:10:24.327Z,1.99
2024-04-10T10:11:24.534Z,2.03
2024-04-10T10:12:24.479Z,1.96
2024-04-10T10:13:24.860Z,2.07
2024-04-10T10:14:24.425Z,2.12
2024-04-10T10:15:24.531Z,2.18
2024-04-10T10:16:26.415Z,2.24
2024-04-10T10:17:24.493Z,2.21
2024-04-10T10:18:32.950Z,2.21
2024-04-10T10:19:26.654Z,2.21
2024-04-10T10:20:24.622Z,2.24
2024-04-10T10:21:24.984Z,2.29
2024-04-10T10:22:24.504Z,2.36
2024-04-10T10:23:24.716Z,2.33
2024-04-10T10:24:25.775Z,2.44
2024-04-10T10:25:24.844Z,2.40
2024-04-10T10:26:25.392Z,2.40
2024-04-10T10:27:25.198Z,2.38
2024-04-10T10:28:24.515Z,2.39
2024-04-10T10:29:25.059Z,2.27
2024-04-10T10:30:24.546Z,2.26
2024-04-10T10:31:24.634Z,2.13
2024-04-10T10:32:24.725Z,2.16
2024-04-10T10:33:24.919Z,2.06
2024-04-10T10:34:25.114Z,2.01
2024-04-10T10:35:24.795Z,1.92
2024-04-10T10:36:24.804Z,1.86
2024-04-10T10:37:24.817Z,1.79
2024-04-10T10:38:24.913Z,1.73
2024-04-10T10:39:24.921Z,1.69
2024-04-10T10:40:25.471Z,1.70
2024-04-10T10:41:25.101Z,1.57
2024-04-10T10:42:25.112Z,1.57
2024-04-10T10:43:25.401Z,1.48
2024-04-10T10:44:26.019Z,1.42
2024-04-10T10:45:25.324Z,1.44
2024-04-10T10:46:25.431Z,1.37
2024-04-10T10:47:25.527Z,1.33
2024-04-10T10:48:26.184Z,1.27
2024-04-10T10:49:25.537Z,1.22
2024-04-10T10:50:25.793Z,1.19
2024-04-10T10:51:26.490Z,1.18
2024-04-10T10:52:26.591Z,1.16
2024-04-10T10:53:25.990Z,1.12
2024-04-10T10:54:26.173Z,1.11
2024-04-10T10:55:28.958Z,1.13
2024-04-10T10:56:26.133Z,1.11
2024-04-10T10:57:26.580Z,1.07
2024-04-10T10:58:26.105Z,1.12
2024-04-10T10:59:25.945Z,1.11
2024-04-10T11:00:26.027Z,1.13
2024-04-10T11:01:27.238Z,1.13
2024-04-10T11:02:26.156Z,1.06
2024-04-10T11:03:29.806Z,1.10
2024-04-10T11:04:26.414Z,1.10
2024-04-10T11:05:26.470Z,1.07
2024-04-10T11:06:26.081Z,1.05
2024-04-10T11:07:25.960Z,1.05
2024-04-10T11:08:27.030Z,1.01
2024-04-10T11:09:26.439Z,0.98
2024-04-10T11:10:27.022Z,0.97
2024-04-10T11:11:29.324Z,0.95
2024-04-10T11:12:26.140Z,0.95
2024-04-10T11:13:27.548Z,0.91
2024-04-10T11:14:26.156Z,0.88
2024-04-10T11:15:27.980Z,0.87
2024-04-10T11:16:27.088Z,0.82
2024-04-10T11:17:27.312Z,0.78
2024-04-10T11:18:26.219Z,0.78
2024-04-10T11:19:31.824Z,0.78
2024-04-10T11:20:27.243Z,0.76
2024-04-10T11:21:26.338Z,0.76
2024-04-10T11:22:26.125Z,0.78
2024-04-10T11:23:26.283Z,0.77
2024-04-10T11:24:26.079Z,0.78
2024-04-10T11:25:26.072Z,0.81
2024-04-10T11:26:26.218Z,0.82
2024-04-10T11:27:26.082Z,0.84
2024-04-10T11:28:26.100Z,0.83
2024-04-10T11:29:26.233Z,0.85
2024-04-10T11:30:26.103Z,0.85
2024-04-10T11:31:26.084Z,0.88
2024-04-10T11:32:26.274Z,0.87
2024-04-10T11:33:26.336Z,0.89
2024-04-10T11:34:26.263Z,0.91
2024-04-10T11:35:26.251Z,0.89
2024-04-10T11:36:26.105Z,0.90
2024-04-10T11:37:26.126Z,0.89
2024-04-10T11:38:26.175Z,0.90
2024-04-10T11:39:26.132Z,0.90
2024-04-10T11:40:26.084Z,0.92
2024-04-10T11:41:26.373Z,0.91
2024-04-10T11:42:26.210Z,0.90
2024-04-10T11:43:26.221Z,0.91
2024-04-10T11:44:26.337Z,0.87
2024-04-10T11:45:26.605Z,0.89
2024-04-10T11:46:26.611Z,0.90
2024-04-10T11:47:26.688Z,0.90
2024-04-10T11:48:26.699Z,0.88
2024-04-10T11:49:26.769Z,0.94
2024-04-10T11:50:26.828Z,0.91
2024-04-10T11:51:26.763Z,0.88
2024-04-10T11:52:26.860Z,0.90
2024-04-10T11:53:27.005Z,0.89
2024-04-10T11:54:27.090Z,0.89
2024-04-10T11:55:27.193Z,0.89
2024-04-10T11:56:27.264Z,0.89
2024-04-10T11:57:27.386Z,0.89
2024-04-10T11:58:27.245Z,0.92
2024-04-10T11:59:27.393Z,0.90
2024-04-10T12:00:27.409Z,0.90
2024-04-10T12:01:27.567Z,0.94
2024-04-10T12:02:27.660Z,0.99
2024-04-10T12:03:27.856Z,1.00
2024-04-10T12:04:27.687Z,1.01
2024-04-10T12:05:27.867Z,1.04
2024-04-10T12:06:28.269Z,1.07
2024-04-10T12:07:29.453Z,1.09
2024-04-10T12:08:28.045Z,1.12
2024-04-10T12:09:27.983Z,1.17
2024-04-10T12:10:28.042Z,1.21
2024-04-10T12:11:29.008Z,1.21
2024-04-10T12:12:28.210Z,1.31
2024-04-10T12:13:28.240Z,1.33
2024-04-10T12:14:28.721Z,1.29
2024-04-10T12:15:29.069Z,1.31
2024-04-10T12:16:28.333Z,1.32
2024-04-10T12:17:28.522Z,1.31
2024-04-10T12:18:29.820Z,1.27
2024-04-10T12:19:28.998Z,1.28
2024-04-10T12:20:28.549Z,1.29
2024-04-10T12:21:28.605Z,1.24
2024-04-10T12:22:28.734Z,1.20
2024-04-10T12:23:28.730Z,1.21
2024-04-10T12:24:28.792Z,1.20
2024-04-10T12:25:28.967Z,1.17
2024-04-10T12:26:29.006Z,1.18
2024-04-10T12:27:29.028Z,1.18
2024-04-10T12:28:29.094Z,1.16
2024-04-10T12:29:29.489Z,1.12
2024-04-10T12:30:29.136Z,1.13
2024-04-10T12:31:29.212Z,1.10
2024-04-10T12:32:29.540Z,1.08
2024-04-10T12:33:29.419Z,1.08
2024-04-10T12:34:29.532Z,1.08
2024-04-10T12:35:29.667Z,1.07
2024-04-10T12:36:29.511Z,1.06
2024-04-10T12:37:29.646Z,1.05
2024-04-10T12:38:29.738Z,1.03
2024-04-10T12:39:29.747Z,1.02
2024-04-10T12:40:29.756Z,1.00
2024-04-10T12:41:29.905Z,1.01
2024-04-10T12:42:29.893Z,0.99
2024-04-10T12:43:30.068Z,0.99
2024-04-10T12:44:30.032Z,0.99
2024-04-10T12:45:30.959Z,0.95
2024-04-10T12:46:30.176Z,0.99
2024-04-10T12:47:30.269Z,1.01
2024-04-10T12:48:30.371Z,1.02
2024-04-10T12:49:30.292Z,1.06
2024-04-10T12:50:30.407Z,1.07
2024-04-10T12:51:30.975Z,1.08
2024-04-10T12:52:33.838Z,1.11
2024-04-10T12:53:32.101Z,1.13
2024-04-10T12:54:30.492Z,1.16
2024-04-10T12:55:30.393Z,1.15
2024-04-10T12:56:30.501Z,1.19
2024-04-10T12:57:30.505Z,1.19
2024-04-10T12:58:30.495Z,1.25
2024-04-10T12:59:31.116Z,1.24
2024-04-10T13:00:30.587Z,1.28
2024-04-10T13:01:30.511Z,1.27
2024-04-10T13:02:30.476Z,1.31
2024-04-10T13:03:30.613Z,1.33
2024-04-10T13:04:30.578Z,1.34
2024-04-10T13:05:30.534Z,1.35
2024-04-10T13:06:30.511Z,1.34
2024-04-10T13:07:30.598Z,1.38
2024-04-10T13:08:30.532Z,1.43
2024-04-10T13:09:30.492Z,1.46
2024-04-10T13:10:30.491Z,1.44
2024-04-10T13:11:30.656Z,1.46
2024-04-10T13:12:30.630Z,1.48
2024-04-10T13:13:35.631Z,1.47
2024-04-10T13:14:31.522Z,1.48
2024-04-10T13:15:30.475Z,1.49
2024-04-10T13:16:30.514Z,1.51
2024-04-10T13:17:34.228Z,1.55
2024-04-10T13:18:30.588Z,1.48
2024-04-10T13:19:30.509Z,1.50